sensor_id;sensor_type;location;lat;lon;timestamp;P1;durP1;ratioP1;P2;durP2;ratioP2
22502;SDS011;11418;48.118;9.992;2023-07-13T00:01:16;0.47;;;0.47;;
22502;SDS011;11418;48.118;9.992;2023-07-13T00:05:17;0.10;;;0.10;;
22502;SDS011;11418;48.118;9.992;2023-07-13T00:09:18;0.10;;;0.10;;
22502;SDS011;11418;48.118;9.992;2023-07-13T00:13:19;0.10;;;0.10;;
22502;SDS011;11418;48.118;9.992;2023-07-13T00:17:20;0.10;;;0.10;;
22502;SDS011;11418;48.118;9.992;2023-07-13T00:21:20;0.10;;;0.10;;
22502;SDS011;11418;48.118;9.992;2023-07-13T00:25:21;0.10;;;0.10;;
22502;SDS011;11418;48.118;9.992;2023-07-13T00:29:25;0.10;;;0.10;;
22502;SDS011;11418;48.118;9.992;2023-07-13T00:33:29;0.00;;;0.00;;
22502;SDS011;11418;48.118;9.992;2023-07-13T00:37:30;0.10;;;0.10;;
22502;SDS011;11418;48.118;9.992;2023-07-13T00:41:31;0.10;;;0.10;;
22502;SDS011;11418;48.118;9.992;2023-07-13T00:49:41;0.20;;;0.20;;
22502;SDS011;11418;48.118;9.992;2023-07-13T00:53:42;0.10;;;0.10;;
22502;SDS011;11418;48.118;9.992;2023-07-13T00:57:43;0.10;;;0.10;;
22502;SDS011;11418;48.118;9.992;2023-07-13T01:01:44;0.10;;;0.10;;
22502;SDS011;11418;48.118;9.992;2023-07-13T01:05:46;0.10;;;0.10;;
22502;SDS011;11418;48.118;9.992;2023-07-13T01:09:48;0.10;;;0.10;;
22502;SDS011;11418;48.118;9.992;2023-07-13T01:13:49;0.10;;;0.10;;
22502;SDS011;11418;48.118;9.992;2023-07-13T01:17:49;0.10;;;0.10;;
22502;SDS011;11418;48.118;9.992;2023-07-13T01:21:51;0.17;;;0.17;;
22502;SDS011;11418;48.118;9.992;2023-07-13T01:25:52;0.10;;;0.10;;
22502;SDS011;11418;48.118;9.992;2023-07-13T01:29:53;0.10;;;0.10;;
22502;SDS011;11418;48.118;9.992;2023-07-13T01:34:02;0.10;;;0.10;;
22502;SDS011;11418;48.118;9.992;2023-07-13T01:38:02;0.10;;;0.10;;
22502;SDS011;11418;48.118;9.992;2023-07-13T01:42:03;0.10;;;0.10;;
22502;SDS011;11418;48.118;9.992;2023-07-13T01:46:04;0.98;;;0.85;;
22502;SDS011;11418;48.118;9.992;2023-07-13T01:50:05;0.10;;;0.10;;
22502;SDS011;11418;48.118;9.992;2023-07-13T01:54:05;0.10;;;0.10;;
22502;SDS011;11418;48.118;9.992;2023-07-13T01:58:06;0.00;;;0.00;;
22502;SDS011;11418;48.118;9.992;2023-07-13T02:02:06;0.10;;;0.10;;
22502;SDS011;11418;48.118;9.992;2023-07-13T02:06:07;0.10;;;0.10;;
22502;SDS011;11418;48.118;9.992;2023-07-13T02:10:08;0.30;;;0.30;;
22502;SDS011;11418;48.118;9.992;2023-07-13T02:14:09;0.10;;;0.10;;
22502;SDS011;11418;48.118;9.992;2023-07-13T02:18:10;0.10;;;0.10;;
22502;SDS011;11418;48.118;9.992;2023-07-13T02:22:11;0.10;;;0.10;;
22502;SDS011;11418;48.118;9.992;2023-07-13T02:26:11;0.10;;;0.10;;
22502;SDS011;11418;48.118;9.992;2023-07-13T02:30:12;0.10;;;0.10;;
22502;SDS011;11418;48.118;9.992;2023-07-13T02:34:15;0.10;;;0.10;;
22502;SDS011;11418;48.118;9.992;2023-07-13T02:38:15;0.10;;;0.10;;
22502;SDS011;11418;48.118;9.992;2023-07-13T02:42:16;0.10;;;0.10;;
22502;SDS011;11418;48.118;9.992;2023-07-13T02:46:16;0.20;;;0.20;;
22502;SDS011;11418;48.118;9.992;2023-07-13T02:50:19;0.10;;;0.10;;
22502;SDS011;11418;48.118;9.992;2023-07-13T02:54:20;0.10;;;0.10;;
22502;SDS011;11418;48.118;9.992;2023-07-13T02:58:20;0.10;;;0.10;;
22502;SDS011;11418;48.118;9.992;2023-07-13T03:02:21;0.10;;;0.10;;
22502;SDS011;11418;48.118;9.992;2023-07-13T03:06:21;0.03;;;0.03;;
22502;SDS011;11418;48.118;9.992;2023-07-13T03:10:22;0.10;;;0.10;;
22502;SDS011;11418;48.118;9.992;2023-07-13T03:14:23;0.10;;;0.10;;
22502;SDS011;11418;48.118;9.992;2023-07-13T03:18:25;0.10;;;0.10;;
22502;SDS011;11418;48.118;9.992;2023-07-13T03:22:27;0.10;;;0.10;;
22502;SDS011;11418;48.118;9.992;2023-07-13T03:26:28;0.08;;;0.08;;
22502;SDS011;11418;48.118;9.992;2023-07-13T03:30:28;0.10;;;0.10;;
22502;SDS011;11418;48.118;9.992;2023-07-13T03:34:29;0.10;;;0.10;;
22502;SDS011;11418;48.118;9.992;2023-07-13T03:38:29;0.10;;;0.10;;
22502;SDS011;11418;48.118;9.992;2023-07-13T03:42:30;0.10;;;0.10;;
22502;SDS011;11418;48.118;9.992;2023-07-13T03:46:30;0.00;;;0.00;;
22502;SDS011;11418;48.118;9.992;2023-07-13T03:50:31;0.10;;;0.10;;
22502;SDS011;11418;48.118;9.992;2023-07-13T03:54:32;0.10;;;0.10;;
22502;SDS011;11418;48.118;9.992;2023-07-13T03:58:34;0.10;;;0.10;;
22502;SDS011;11418;48.118;9.992;2023-07-13T04:02:36;0.10;;;0.10;;
22502;SDS011;11418;48.118;9.992;2023-07-13T04:06:37;0.10;;;0.10;;
22502;SDS011;11418;48.118;9.992;2023-07-13T04:10:37;0.10;;;0.10;;
22502;SDS011;11418;48.118;9.992;2023-07-13T04:14:38;0.10;;;0.10;;
22502;SDS011;11418;48.118;9.992;2023-07-13T04:18:39;0.10;;;0.10;;
22502;SDS011;11418;48.118;9.992;2023-07-13T04:22:39;0.15;;;0.15;;
22502;SDS011;11418;48.118;9.992;2023-07-13T04:26:40;0.10;;;0.10;;
22502;SDS011;11418;48.118;9.992;2023-07-13T04:30:40;0.10;;;0.10;;
22502;SDS011;11418;48.118;9.992;2023-07-13T04:34:41;0.10;;;0.10;;
22502;SDS011;11418;48.118;9.992;2023-07-13T04:38:41;0.10;;;0.10;;
22502;SDS011;11418;48.118;9.992;2023-07-13T04:42:43;0.10;;;0.10;;
22502;SDS011;11418;48.118;9.992;2023-07-13T04:46:44;0.10;;;0.10;;
22502;SDS011;11418;48.118;9.992;2023-07-13T04:50:45;0.10;;;0.10;;
22502;SDS011;11418;48.118;9.992;2023-07-13T04:54:46;0.10;;;0.10;;
22502;SDS011;11418;48.118;9.992;2023-07-13T04:58:47;0.10;;;0.10;;
22502;SDS011;11418;48.118;9.992;2023-07-13T05:02:47;0.10;;;0.10;;
22502;SDS011;11418;48.118;9.992;2023-07-13T05:06:48;0.10;;;0.10;;
22502;SDS011;11418;48.118;9.992;2023-07-13T05:10:49;3.83;;;1.85;;
22502;SDS011;11418;48.118;9.992;2023-07-13T05:14:50;0.10;;;0.10;;
22502;SDS011;11418;48.118;9.992;2023-07-13T05:18:50;0.10;;;0.10;;
22502;SDS011;11418;48.118;9.992;2023-07-13T05:22:51;0.20;;;0.20;;
22502;SDS011;11418;48.118;9.992;2023-07-13T05:26:52;0.10;;;0.10;;
22502;SDS011;11418;48.118;9.992;2023-07-13T05:30:53;0.10;;;0.10;;
22502;SDS011;11418;48.118;9.992;2023-07-13T05:34:54;0.10;;;0.10;;
22502;SDS011;11418;48.118;9.992;2023-07-13T05:38:54;0.13;;;0.13;;
22502;SDS011;11418;48.118;9.992;2023-07-13T05:42:55;0.20;;;0.20;;
22502;SDS011;11418;48.118;9.992;2023-07-13T05:46:55;0.10;;;0.10;;
22502;SDS011;11418;48.118;9.992;2023-07-13T05:50:56;0.10;;;0.10;;
22502;SDS011;11418;48.118;9.992;2023-07-13T05:54:57;0.10;;;0.10;;
22502;SDS011;11418;48.118;9.992;2023-07-13T05:58:57;0.10;;;0.10;;
22502;SDS011;11418;48.118;9.992;2023-07-13T06:02:58;0.10;;;0.10;;
22502;SDS011;11418;48.118;9.992;2023-07-13T06:06:58;0.15;;;0.15;;
22502;SDS011;11418;48.118;9.992;2023-07-13T06:11:04;0.10;;;0.10;;
22502;SDS011;11418;48.118;9.992;2023-07-13T06:15:12;0.10;;;0.10;;
22502;SDS011;11418;48.118;9.992;2023-07-13T06:19:13;0.10;;;0.10;;
22502;SDS011;11418;48.118;9.992;2023-07-13T06:23:14;0.10;;;0.10;;
22502;SDS011;11418;48.118;9.992;2023-07-13T06:27:14;0.10;;;0.10;;
22502;SDS011;11418;48.118;9.992;2023-07-13T06:31:15;0.20;;;0.20;;
22502;SDS011;11418;48.118;9.992;2023-07-13T06:35:16;0.10;;;0.10;;
22502;SDS011;11418;48.118;9.992;2023-07-13T06:39:17;0.10;;;0.10;;
22502;SDS011;11418;48.118;9.992;2023-07-13T06:43:17;0.10;;;0.10;;
22502;SDS011;11418;48.118;9.992;2023-07-13T06:47:19;0.20;;;0.20;;
22502;SDS011;11418;48.118;9.992;2023-07-13T06:51:19;0.20;;;0.20;;
22502;SDS011;11418;48.118;9.992;2023-07-13T06:55:20;0.10;;;0.10;;
22502;SDS011;11418;48.118;9.992;2023-07-13T06:59:20;0.17;;;0.17;;
22502;SDS011;11418;48.118;9.992;2023-07-13T07:03:21;0.10;;;0.10;;
22502;SDS011;11418;48.118;9.992;2023-07-13T07:07:23;0.10;;;0.10;;
22502;SDS011;11418;48.118;9.992;2023-07-13T07:11:26;0.10;;;0.10;;
22502;SDS011;11418;48.118;9.992;2023-07-13T07:15:26;0.10;;;0.10;;
22502;SDS011;11418;48.118;9.992;2023-07-13T07:19:29;0.20;;;0.20;;
22502;SDS011;11418;48.118;9.992;2023-07-13T07:23:30;0.10;;;0.10;;
22502;SDS011;11418;48.118;9.992;2023-07-13T07:27:31;0.10;;;0.10;;
22502;SDS011;11418;48.118;9.992;2023-07-13T07:31:32;0.10;;;0.10;;
22502;SDS011;11418;48.118;9.992;2023-07-13T07:35:33;0.10;;;0.10;;
22502;SDS011;11418;48.118;9.992;2023-07-13T07:39:33;0.20;;;0.20;;
22502;SDS011;11418;48.118;9.992;2023-07-13T07:43:34;0.32;;;0.32;;
22502;SDS011;11418;48.118;9.992;2023-07-13T07:47:34;0.10;;;0.10;;
22502;SDS011;11418;48.118;9.992;2023-07-13T07:51:35;0.10;;;0.10;;
22502;SDS011;11418;48.118;9.992;2023-07-13T07:55:36;0.10;;;0.10;;
22502;SDS011;11418;48.118;9.992;2023-07-13T07:59:37;0.13;;;0.13;;
22502;SDS011;11418;48.118;9.992;2023-07-13T08:03:38;0.10;;;0.10;;
22502;SDS011;11418;48.118;9.992;2023-07-13T08:07:39;0.10;;;0.10;;
22502;SDS011;11418;48.118;9.992;2023-07-13T08:11:39;0.10;;;0.10;;
22502;SDS011;11418;48.118;9.992;2023-07-13T08:15:40;0.10;;;0.10;;
22502;SDS011;11418;48.118;9.992;2023-07-13T08:19:41;0.10;;;0.10;;
22502;SDS011;11418;48.118;9.992;2023-07-13T08:23:41;0.10;;;0.10;;
22502;SDS011;11418;48.118;9.992;2023-07-13T08:27:41;0.40;;;0.40;;
22502;SDS011;11418;48.118;9.992;2023-07-13T08:31:42;0.10;;;0.10;;
22502;SDS011;11418;48.118;9.992;2023-07-13T08:35:45;0.10;;;0.10;;
22502;SDS011;11418;48.118;9.992;2023-07-13T08:39:46;0.10;;;0.10;;
22502;SDS011;11418;48.118;9.992;2023-07-13T08:43:49;0.10;;;0.10;;
22502;SDS011;11418;48.118;9.992;2023-07-13T08:47:57;1.00;;;1.00;;
22502;SDS011;11418;48.118;9.992;2023-07-13T08:52:34;0.17;;;0.17;;
22502;SDS011;11418;48.118;9.992;2023-07-13T08:56:34;0.10;;;0.10;;
22502;SDS011;11418;48.118;9.992;2023-07-13T09:00:46;0.10;;;0.10;;
22502;SDS011;11418;48.118;9.992;2023-07-13T09:05:03;0.30;;;0.30;;
22502;SDS011;11418;48.118;9.992;2023-07-13T09:13:50;0.10;;;0.10;;
22502;SDS011;11418;48.118;9.992;2023-07-13T09:17:55;0.30;;;0.30;;
22502;SDS011;11418;48.118;9.992;2023-07-13T09:22:02;0.10;;;0.10;;
22502;SDS011;11418;48.118;9.992;2023-07-13T09:26:18;0.10;;;0.10;;
22502;SDS011;11418;48.118;9.992;2023-07-13T09:34:25;0.10;;;0.10;;
22502;SDS011;11418;48.118;9.992;2023-07-13T09:38:27;6.80;;;2.28;;
22502;SDS011;11418;48.118;9.992;2023-07-13T09:42:29;3.80;;;1.60;;
22502;SDS011;11418;48.118;9.992;2023-07-13T09:46:31;6.40;;;1.42;;
22502;SDS011;11418;48.118;9.992;2023-07-13T09:50:32;5.82;;;1.60;;
22502;SDS011;11418;48.118;9.992;2023-07-13T09:54:33;5.50;;;1.67;;
22502;SDS011;11418;48.118;9.992;2023-07-13T09:58:35;2.55;;;1.30;;
22502;SDS011;11418;48.118;9.992;2023-07-13T10:02:36;3.35;;;1.90;;
22502;SDS011;11418;48.118;9.992;2023-07-13T10:06:36;3.58;;;1.67;;
22502;SDS011;11418;48.118;9.992;2023-07-13T10:10:39;4.30;;;1.70;;
22502;SDS011;11418;48.118;9.992;2023-07-13T10:14:40;3.60;;;1.75;;
22502;SDS011;11418;48.118;9.992;2023-07-13T10:18:46;4.72;;;1.52;;
22502;SDS011;11418;48.118;9.992;2023-07-13T10:22:51;3.17;;;1.73;;
22502;SDS011;11418;48.118;9.992;2023-07-13T10:31:25;4.28;;;1.63;;
22502;SDS011;11418;48.118;9.992;2023-07-13T10:35:26;9.73;;;1.67;;
22502;SDS011;11418;48.118;9.992;2023-07-13T10:39:30;4.65;;;1.90;;
22502;SDS011;11418;48.118;9.992;2023-07-13T10:43:35;2.40;;;1.70;;
22502;SDS011;11418;48.118;9.992;2023-07-13T10:47:39;2.85;;;1.90;;
22502;SDS011;11418;48.118;9.992;2023-07-13T10:51:40;5.07;;;1.90;;
22502;SDS011;11418;48.118;9.992;2023-07-13T10:56:03;5.25;;;2.20;;
22502;SDS011;11418;48.118;9.992;2023-07-13T11:00:15;4.57;;;1.48;;
22502;SDS011;11418;48.118;9.992;2023-07-13T11:04:18;7.72;;;2.20;;
22502;SDS011;11418;48.118;9.992;2023-07-13T11:08:36;6.40;;;2.00;;
22502;SDS011;11418;48.118;9.992;2023-07-13T11:16:47;6.05;;;1.92;;
22502;SDS011;11418;48.118;9.992;2023-07-13T11:20:48;4.20;;;1.92;;
22502;SDS011;11418;48.118;9.992;2023-07-13T11:24:57;4.05;;;1.80;;
22502;SDS011;11418;48.118;9.992;2023-07-13T11:33:12;3.38;;;1.88;;
22502;SDS011;11418;48.118;9.992;2023-07-13T11:37:21;5.38;;;1.88;;
22502;SDS011;11418;48.118;9.992;2023-07-13T11:41:25;3.38;;;1.80;;
22502;SDS011;11418;48.118;9.992;2023-07-13T11:45:28;5.43;;;1.92;;
22502;SDS011;11418;48.118;9.992;2023-07-13T11:49:31;5.00;;;2.22;;
22502;SDS011;11418;48.118;9.992;2023-07-13T11:53:38;2.63;;;1.80;;
22502;SDS011;11418;48.118;9.992;2023-07-13T11:57:51;3.50;;;2.42;;
22502;SDS011;11418;48.118;9.992;2023-07-13T12:01:59;4.40;;;2.10;;
22502;SDS011;11418;48.118;9.992;2023-07-13T12:10:03;4.20;;;2.10;;
22502;SDS011;11418;48.118;9.992;2023-07-13T12:14:23;4.65;;;1.95;;
22502;SDS011;11418;48.118;9.992;2023-07-13T12:18:30;3.35;;;2.00;;
22502;SDS011;11418;48.118;9.992;2023-07-13T12:22:31;4.85;;;2.35;;
22502;SDS011;11418;48.118;9.992;2023-07-13T12:26:34;6.07;;;2.17;;
22502;SDS011;11418;48.118;9.992;2023-07-13T12:30:34;3.92;;;2.00;;
22502;SDS011;11418;48.118;9.992;2023-07-13T12:34:49;3.75;;;2.08;;
22502;SDS011;11418;48.118;9.992;2023-07-13T12:38:54;4.10;;;2.10;;
22502;SDS011;11418;48.118;9.992;2023-07-13T12:42:54;8.13;;;2.10;;
22502;SDS011;11418;48.118;9.992;2023-07-13T12:47:02;3.58;;;1.65;;
22502;SDS011;11418;48.118;9.992;2023-07-13T12:51:08;2.83;;;1.88;;
22502;SDS011;11418;48.118;9.992;2023-07-13T12:55:12;3.17;;;1.70;;
22502;SDS011;11418;48.118;9.992;2023-07-13T12:59:18;3.05;;;1.77;;
22502;SDS011;11418;48.118;9.992;2023-07-13T13:03:37;4.78;;;2.00;;
22502;SDS011;11418;48.118;9.992;2023-07-13T13:11:42;4.47;;;1.65;;
22502;SDS011;11418;48.118;9.992;2023-07-13T13:15:42;3.97;;;1.45;;
22502;SDS011;11418;48.118;9.992;2023-07-13T13:19:43;3.63;;;1.80;;
22502;SDS011;11418;48.118;9.992;2023-07-13T13:23:44;4.03;;;1.95;;
22502;SDS011;11418;48.118;9.992;2023-07-13T13:27:46;3.75;;;1.75;;
22502;SDS011;11418;48.118;9.992;2023-07-13T13:31:46;4.78;;;1.50;;
22502;SDS011;11418;48.118;9.992;2023-07-13T13:35:47;4.82;;;1.67;;
22502;SDS011;11418;48.118;9.992;2023-07-13T13:39:48;7.43;;;2.10;;
22502;SDS011;11418;48.118;9.992;2023-07-13T13:43:49;4.75;;;1.60;;
22502;SDS011;11418;48.118;9.992;2023-07-13T13:47:50;6.57;;;1.80;;
22502;SDS011;11418;48.118;9.992;2023-07-13T13:51:51;2.47;;;1.63;;
22502;SDS011;11418;48.118;9.992;2023-07-13T13:55:52;4.25;;;1.80;;
22502;SDS011;11418;48.118;9.992;2023-07-13T13:59:52;6.50;;;1.77;;
22502;SDS011;11418;48.118;9.992;2023-07-13T14:03:53;6.30;;;1.65;;
22502;SDS011;11418;48.118;9.992;2023-07-13T14:07:54;3.83;;;1.55;;
22502;SDS011;11418;48.118;9.992;2023-07-13T14:11:55;3.38;;;1.90;;
22502;SDS011;11418;48.118;9.992;2023-07-13T14:15:57;2.63;;;1.55;;
22502;SDS011;11418;48.118;9.992;2023-07-13T14:19:59;5.60;;;1.80;;
22502;SDS011;11418;48.118;9.992;2023-07-13T14:24:00;6.22;;;1.98;;
22502;SDS011;11418;48.118;9.992;2023-07-13T14:28:17;5.53;;;1.80;;
22502;SDS011;11418;48.118;9.992;2023-07-13T14:32:26;3.88;;;1.60;;
22502;SDS011;11418;48.118;9.992;2023-07-13T14:36:28;4.97;;;2.50;;
22502;SDS011;11418;48.118;9.992;2023-07-13T14:40:38;4.13;;;1.77;;
22502;SDS011;11418;48.118;9.992;2023-07-13T14:44:39;4.80;;;1.85;;
22502;SDS011;11418;48.118;9.992;2023-07-13T14:48:40;6.93;;;1.90;;
22502;SDS011;11418;48.118;9.992;2023-07-13T14:52:42;7.55;;;1.77;;
22502;SDS011;11418;48.118;9.992;2023-07-13T14:56:44;5.30;;;2.08;;
22502;SDS011;11418;48.118;9.992;2023-07-13T15:00:44;3.33;;;2.03;;
22502;SDS011;11418;48.118;9.992;2023-07-13T15:04:46;8.80;;;2.13;;
22502;SDS011;11418;48.118;9.992;2023-07-13T15:08:47;6.78;;;2.00;;
22502;SDS011;11418;48.118;9.992;2023-07-13T15:12:50;7.70;;;1.90;;
22502;SDS011;11418;48.118;9.992;2023-07-13T15:16:58;4.47;;;1.70;;
22502;SDS011;11418;48.118;9.992;2023-07-13T15:20:59;5.45;;;1.88;;
22502;SDS011;11418;48.118;9.992;2023-07-13T15:25:02;3.67;;;1.60;;
22502;SDS011;11418;48.118;9.992;2023-07-13T15:29:04;3.60;;;1.70;;
22502;SDS011;11418;48.118;9.992;2023-07-13T15:33:19;4.68;;;2.10;;
22502;SDS011;11418;48.118;9.992;2023-07-13T15:37:30;7.32;;;1.83;;
22502;SDS011;11418;48.118;9.992;2023-07-13T15:41:30;4.60;;;1.90;;
22502;SDS011;11418;48.118;9.992;2023-07-13T15:45:32;2.50;;;1.50;;
22502;SDS011;11418;48.118;9.992;2023-07-13T15:49:33;3.85;;;1.73;;
22502;SDS011;11418;48.118;9.992;2023-07-13T15:53:34;4.28;;;1.88;;
22502;SDS011;11418;48.118;9.992;2023-07-13T15:57:35;3.78;;;1.58;;
22502;SDS011;11418;48.118;9.992;2023-07-13T16:01:36;3.75;;;1.77;;
22502;SDS011;11418;48.118;9.992;2023-07-13T16:05:37;4.78;;;1.90;;
22502;SDS011;11418;48.118;9.992;2023-07-13T16:09:38;4.00;;;1.50;;
22502;SDS011;11418;48.118;9.992;2023-07-13T16:13:40;2.78;;;1.52;;
22502;SDS011;11418;48.118;9.992;2023-07-13T16:17:41;6.53;;;1.70;;
22502;SDS011;11418;48.118;9.992;2023-07-13T16:21:46;4.53;;;2.05;;
22502;SDS011;11418;48.118;9.992;2023-07-13T16:25:51;6.10;;;2.17;;
22502;SDS011;11418;48.118;9.992;2023-07-13T16:29:52;4.05;;;1.70;;
22502;SDS011;11418;48.118;9.992;2023-07-13T16:33:53;3.58;;;1.83;;
22502;SDS011;11418;48.118;9.992;2023-07-13T16:37:53;3.67;;;2.08;;
22502;SDS011;11418;48.118;9.992;2023-07-13T16:41:55;4.00;;;2.17;;
22502;SDS011;11418;48.118;9.992;2023-07-13T16:45:57;6.53;;;1.80;;
22502;SDS011;11418;48.118;9.992;2023-07-13T16:50:04;3.58;;;2.08;;
22502;SDS011;11418;48.118;9.992;2023-07-13T16:54:17;4.13;;;1.85;;
22502;SDS011;11418;48.118;9.992;2023-07-13T16:58:18;6.93;;;1.95;;
22502;SDS011;11418;48.118;9.992;2023-07-13T17:06:27;3.90;;;2.05;;
22502;SDS011;11418;48.118;9.992;2023-07-13T17:10:29;3.60;;;2.10;;
22502;SDS011;11418;48.118;9.992;2023-07-13T17:14:30;5.07;;;2.50;;
22502;SDS011;11418;48.118;9.992;2023-07-13T17:18:34;4.93;;;2.00;;
22502;SDS011;11418;48.118;9.992;2023-07-13T17:22:37;7.50;;;2.10;;
22502;SDS011;11418;48.118;9.992;2023-07-13T17:26:38;4.25;;;2.13;;
22502;SDS011;11418;48.118;9.992;2023-07-13T17:30:41;4.22;;;2.00;;
22502;SDS011;11418;48.118;9.992;2023-07-13T17:34:43;3.70;;;2.20;;
22502;SDS011;11418;48.118;9.992;2023-07-13T17:38:48;5.13;;;1.98;;
22502;SDS011;11418;48.118;9.992;2023-07-13T17:42:56;4.93;;;1.98;;
22502;SDS011;11418;48.118;9.992;2023-07-13T17:46:57;2.67;;;1.80;;
22502;SDS011;11418;48.118;9.992;2023-07-13T17:50:58;3.42;;;2.13;;
22502;SDS011;11418;48.118;9.992;2023-07-13T17:54:59;4.72;;;1.90;;
22502;SDS011;11418;48.118;9.992;2023-07-13T17:59:02;6.68;;;2.08;;
22502;SDS011;11418;48.118;9.992;2023-07-13T18:03:13;6.30;;;1.70;;
22502;SDS011;11418;48.118;9.992;2023-07-13T18:07:18;3.08;;;1.75;;
22502;SDS011;11418;48.118;9.992;2023-07-13T18:11:22;2.60;;;1.92;;
22502;SDS011;11418;48.118;9.992;2023-07-13T18:15:24;4.35;;;2.05;;
22502;SDS011;11418;48.118;9.992;2023-07-13T18:19:30;4.22;;;2.13;;
22502;SDS011;11418;48.118;9.992;2023-07-13T18:23:38;6.35;;;2.00;;
22502;SDS011;11418;48.118;9.992;2023-07-13T18:27:38;3.72;;;2.30;;
22502;SDS011;11418;48.118;9.992;2023-07-13T18:31:39;4.05;;;2.75;;
22502;SDS011;11418;48.118;9.992;2023-07-13T18:35:39;4.47;;;2.42;;
22502;SDS011;11418;48.118;9.992;2023-07-13T18:39:40;6.55;;;2.47;;
22502;SDS011;11418;48.118;9.992;2023-07-13T18:43:41;4.90;;;2.25;;
22502;SDS011;11418;48.118;9.992;2023-07-13T18:47:43;5.82;;;3.03;;
22502;SDS011;11418;48.118;9.992;2023-07-13T18:51:45;3.80;;;2.28;;
22502;SDS011;11418;48.118;9.992;2023-07-13T18:55:48;5.32;;;2.15;;
22502;SDS011;11418;48.118;9.992;2023-07-13T18:59:48;3.70;;;2.17;;
22502;SDS011;11418;48.118;9.992;2023-07-13T19:03:49;3.45;;;2.20;;
22502;SDS011;11418;48.118;9.992;2023-07-13T19:07:51;4.03;;;2.50;;
22502;SDS011;11418;48.118;9.992;2023-07-13T19:11:53;5.65;;;2.60;;
22502;SDS011;11418;48.118;9.992;2023-07-13T19:15:54;3.90;;;2.97;;
22502;SDS011;11418;48.118;9.992;2023-07-13T19:19:55;7.38;;;3.10;;
22502;SDS011;11418;48.118;9.992;2023-07-13T19:23:56;5.15;;;2.65;;
22502;SDS011;11418;48.118;9.992;2023-07-13T19:28:02;3.17;;;2.50;;
22502;SDS011;11418;48.118;9.992;2023-07-13T19:32:25;3.30;;;2.65;;
22502;SDS011;11418;48.118;9.992;2023-07-13T19:36:28;7.43;;;3.47;;
22502;SDS011;11418;48.118;9.992;2023-07-13T19:40:29;4.40;;;2.83;;
22502;SDS011;11418;48.118;9.992;2023-07-13T19:44:29;4.15;;;3.03;;
22502;SDS011;11418;48.118;9.992;2023-07-13T19:48:31;7.57;;;3.95;;
22502;SDS011;11418;48.118;9.992;2023-07-13T19:52:32;8.20;;;3.35;;
22502;SDS011;11418;48.118;9.992;2023-07-13T19:56:33;5.75;;;3.20;;
22502;SDS011;11418;48.118;9.992;2023-07-13T20:00:33;3.95;;;2.85;;
22502;SDS011;11418;48.118;9.992;2023-07-13T20:04:37;5.07;;;2.67;;
22502;SDS011;11418;48.118;9.992;2023-07-13T20:08:37;3.53;;;2.80;;
22502;SDS011;11418;48.118;9.992;2023-07-13T20:12:39;4.70;;;2.67;;
22502;SDS011;11418;48.118;9.992;2023-07-13T20:16:39;6.95;;;3.05;;
22502;SDS011;11418;48.118;9.992;2023-07-13T20:20:40;6.70;;;3.33;;
22502;SDS011;11418;48.118;9.992;2023-07-13T20:24:45;4.50;;;3.78;;
22502;SDS011;11418;48.118;9.992;2023-07-13T20:28:46;5.15;;;3.47;;
22502;SDS011;11418;48.118;9.992;2023-07-13T20:32:46;34.80;;;9.13;;
22502;SDS011;11418;48.118;9.992;2023-07-13T20:36:48;15.07;;;4.95;;
22502;SDS011;11418;48.118;9.992;2023-07-13T20:40:49;9.15;;;4.65;;
22502;SDS011;11418;48.118;9.992;2023-07-13T20:44:51;13.30;;;4.72;;
22502;SDS011;11418;48.118;9.992;2023-07-13T20:48:52;5.60;;;3.38;;
22502;SDS011;11418;48.118;9.992;2023-07-13T20:52:54;10.55;;;4.68;;
22502;SDS011;11418;48.118;9.992;2023-07-13T20:56:57;8.95;;;4.78;;
22502;SDS011;11418;48.118;9.992;2023-07-13T21:00:57;9.27;;;5.05;;
22502;SDS011;11418;48.118;9.992;2023-07-13T21:09:17;9.23;;;4.93;;
22502;SDS011;11418;48.118;9.992;2023-07-13T21:13:19;10.00;;;5.68;;
22502;SDS011;11418;48.118;9.992;2023-07-13T21:17:20;10.63;;;5.85;;
22502;SDS011;11418;48.118;9.992;2023-07-13T21:21:22;7.45;;;5.30;;
22502;SDS011;11418;48.118;9.992;2023-07-13T21:25:25;7.95;;;4.68;;
22502;SDS011;11418;48.118;9.992;2023-07-13T21:29:27;10.35;;;5.03;;
22502;SDS011;11418;48.118;9.992;2023-07-13T21:33:28;9.45;;;5.10;;
22502;SDS011;11418;48.118;9.992;2023-07-13T21:37:29;9.43;;;5.32;;
22502;SDS011;11418;48.118;9.992;2023-07-13T21:41:34;12.25;;;5.15;;
22502;SDS011;11418;48.118;9.992;2023-07-13T21:45:36;16.27;;;5.07;;
22502;SDS011;11418;48.118;9.992;2023-07-13T21:49:36;17.88;;;5.72;;
22502;SDS011;11418;48.118;9.992;2023-07-13T21:53:37;30.38;;;6.82;;
22502;SDS011;11418;48.118;9.992;2023-07-13T21:57:38;13.20;;;7.50;;
22502;SDS011;11418;48.118;9.992;2023-07-13T22:01:38;13.50;;;6.80;;
22502;SDS011;11418;48.118;9.992;2023-07-13T22:05:39;34.65;;;5.97;;
22502;SDS011;11418;48.118;9.992;2023-07-13T22:09:41;13.30;;;6.22;;
22502;SDS011;11418;48.118;9.992;2023-07-13T22:13:42;12.80;;;6.55;;
22502;SDS011;11418;48.118;9.992;2023-07-13T22:17:47;10.52;;;5.50;;
22502;SDS011;11418;48.118;9.992;2023-07-13T22:21:48;9.85;;;6.30;;
22502;SDS011;11418;48.118;9.992;2023-07-13T22:25:49;13.07;;;5.25;;
22502;SDS011;11418;48.118;9.992;2023-07-13T22:29:54;22.10;;;7.13;;
22502;SDS011;11418;48.118;9.992;2023-07-13T22:33:55;10.23;;;7.35;;
22502;SDS011;11418;48.118;9.992;2023-07-13T22:37:56;10.40;;;7.50;;
22502;SDS011;11418;48.118;9.992;2023-07-13T22:41:58;11.43;;;5.72;;
22502;SDS011;11418;48.118;9.992;2023-07-13T22:46:00;10.93;;;7.60;;
22502;SDS011;11418;48.118;9.992;2023-07-13T22:50:10;11.70;;;6.25;;
22502;SDS011;11418;48.118;9.992;2023-07-13T22:54:15;11.90;;;6.18;;
22502;SDS011;11418;48.118;9.992;2023-07-13T22:58:16;12.90;;;6.38;;
22502;SDS011;11418;48.118;9.992;2023-07-13T23:02:18;19.98;;;7.10;;
22502;SDS011;11418;48.118;9.992;2023-07-13T23:06:20;17.52;;;7.95;;
22502;SDS011;11418;48.118;9.992;2023-07-13T23:10:22;12.18;;;7.57;;
22502;SDS011;11418;48.118;9.992;2023-07-13T23:14:23;12.02;;;7.57;;
22502;SDS011;11418;48.118;9.992;2023-07-13T23:18:26;10.52;;;6.28;;
22502;SDS011;11418;48.118;9.992;2023-07-13T23:22:26;9.73;;;4.63;;
22502;SDS011;11418;48.118;9.992;2023-07-13T23:26:27;13.18;;;6.13;;
22502;SDS011;11418;48.118;9.992;2023-07-13T23:30:28;11.02;;;7.15;;
22502;SDS011;11418;48.118;9.992;2023-07-13T23:34:29;11.00;;;8.15;;
22502;SDS011;11418;48.118;9.992;2023-07-13T23:38:30;9.63;;;6.55;;
22502;SDS011;11418;48.118;9.992;2023-07-13T23:42:31;12.77;;;5.68;;
22502;SDS011;11418;48.118;9.992;2023-07-13T23:50:48;8.48;;;6.28;;
22502;SDS011;11418;48.118;9.992;2023-07-13T23:54:50;11.82;;;6.47;;
22502;SDS011;11418;48.118;9.992;2023-07-13T23:58:50;9.95;;;6.85;;
